WetterOnline ( http://www.wetteronline.de )

Wetter aktuell Mühldorf

Aktuelles Wetter: Mühldorf am Inn (410m)

6-stündlich | Neueste Meldungen
Ortszeit Temperatur Wetter
Do, 21.02. 7:00 -1.0° C Nebel
Do, 21.02. 1:00 1.2° C bedeckt
Mi, 20.02. 19:00 4.5° C bedeckt
Mi, 20.02. 13:00 8.2° C bewölkt
Mi, 20.02. 7:00 2.6° C bedeckt
Mi, 20.02. 1:00 4.1° C bedeckt
Di, 19.02. 19:00 6.0° C bewölkt
Di, 19.02. 13:00 11.0° C leicht bewölkt
Ortszeit Temperatur Wetter
Do, 21.02. 10:00 4.5° C leicht bewölkt
Do, 21.02. 9:50 4.5° C leicht bewölkt
Do, 21.02. 9:40 3.6° C wolkig
Do, 21.02. 9:30 1.5° C leicht bewölkt
Do, 21.02. 9:20 1.5° C leicht bewölkt
Do, 21.02. 9:10 1.0° C leicht bewölkt
Do, 21.02. 9:00 0.1° C leicht bewölkt
Do, 21.02. 8:30 -0.2° C wolkig
Do, 21.02. 8:00 -0.7° C wolkig
Do, 21.02. 7:30 -0.4° C Nebel
Do, 21.02. 7:00 -1.0° C Nebel
Ortszeit Relative Feuchte Sichtweite
Do, 21.02. 7:00 95% 0.3 km
Do, 21.02. 1:00 96% 3.6 km
Mi, 20.02. 19:00 86% 8 km
Mi, 20.02. 13:00 71% 12 km
Mi, 20.02. 7:00 96% 2.7 km
Mi, 20.02. 1:00 91% 8 km
Di, 19.02. 19:00 80% 23 km
Di, 19.02. 13:00 50% 21 km
Ortszeit Relative Feuchte Sichtweite
Do, 21.02. 10:00 84% 6 km
Do, 21.02. 9:50 84% -
Do, 21.02. 9:40 88% -
Do, 21.02. 9:30 93% 3.3 km
Do, 21.02. 9:20 93% -
Do, 21.02. 9:10 95% -
Do, 21.02. 9:00 96% 2.4 km
Do, 21.02. 8:30 96% 2.1 km
Do, 21.02. 8:00 96% 2.7 km
Do, 21.02. 7:30 98% 0.5 km
Do, 21.02. 7:00 95% 0.3 km
Ortszeit Niederschlagsmenge Niederschlagsart
Do, 21.02. 7:00 0.0 l/m2 in 12 Std. -
Do, 21.02. 1:00 0.0 l/m2 in 6 Std. -
Mi, 20.02. 19:00 0.0 l/m2 in 12 Std. -
Mi, 20.02. 13:00 0.0 l/m2 in 6 Std. -
Mi, 20.02. 7:00 0.1 l/m2 in 12 Std. Regen
Mi, 20.02. 1:00 0.1 l/m2 in 6 Std. Regen
Di, 19.02. 19:00 0.0 l/m2 in 12 Std. -
Di, 19.02. 13:00 0.0 l/m2 in 6 Std. -
Ortszeit Niederschlagsmenge Niederschlagsart
Do, 21.02. 10:00 0.0 l/m2 in 1 Std. -
Do, 21.02. 9:50 keine Meldung -
Do, 21.02. 9:40 keine Meldung -
Do, 21.02. 9:30 0.0 l/m2 in 1 Std. -
Do, 21.02. 9:20 keine Meldung -
Do, 21.02. 9:10 keine Meldung -
Do, 21.02. 9:00 0.0 l/m2 in 1 Std. -
Do, 21.02. 8:30 0.0 l/m2 in 1 Std. -
Do, 21.02. 8:00 0.0 l/m2 in 1 Std. -
Do, 21.02. 7:30 0.0 l/m2 in 1 Std. -
Do, 21.02. 7:00 0.0 l/m2 in 1 Std. -
Ortszeit Stärke Spitze Richtung
km/h Bft. km/h Grad Sektor
Do, 21.02. 7:00 4 1 4 320° NW
Do, 21.02. 1:00 4 1 4 100° O
Mi, 20.02. 19:00 0 0 18 - -
Mi, 20.02. 13:00 7 2 11 260° W
Mi, 20.02. 7:00 0 0 7 - -
Mi, 20.02. 1:00 4 1 14 270° W
Di, 19.02. 19:00 4 1 40 300° NW
Di, 19.02. 13:00 20 4 30 290° W
Ortszeit Stärke Spitze Richtung
km/h Bft. km/h Grad Sektor
Do, 21.02. 10:00 4 1 7 280° W
Do, 21.02. 9:50 4 1 - 280° W
Do, 21.02. 9:40 4 1 - 270° W
Do, 21.02. 9:30 4 1 7 270° W
Do, 21.02. 9:20 4 1 - 270° W
Do, 21.02. 9:10 4 1 - 300° NW
Do, 21.02. 9:00 4 1 7 280° W
Do, 21.02. 8:30 7 2 7 260° W
Do, 21.02. 8:00 4 1 7 270° W
Do, 21.02. 7:30 4 1 7 300° NW
Do, 21.02. 7:00 4 1 4 320° NW
Ortszeit Untergrenze Bedeckung Gattung
total tief tief mittel hoch
Do, 21.02. 7:00 1290 m 3/8 3/8 - - -
Do, 21.02. 1:00 3000 m 8/8 8/8 - - -
Mi, 20.02. 19:00 3600 m 8/8 8/8 - - -
Mi, 20.02. 13:00 1080 m 8/8 7/8 - - -
Mi, 20.02. 7:00 1080 m 8/8 8/8 - - -
Mi, 20.02. 1:00 630 m 8/8 8/8 - - -
Di, 19.02. 19:00 3000 m 7/8 7/8 - - -
Di, 19.02. 13:00 2100 m 5/8 2/8 - - -
Ortszeit Bedeckungsgrad in Achtel und Wolkenuntergrenze
Do, 21.02. 10:00 3(2400m) 4(6000m)
Do, 21.02. 9:50 3(2400m) 4(6000m)
Do, 21.02. 9:40 6(2400m) 6(6000m)
Do, 21.02. 9:30 3(1110m) 4(2400m) 5(6000m)
Do, 21.02. 9:20 3(1110m) 4(2400m)
Do, 21.02. 9:10 4(1140m)
Do, 21.02. 9:00 2(1140m)
Do, 21.02. 8:30 4(1140m) 5(2400m)
Do, 21.02. 8:00 6(1170m)
Do, 21.02. 7:30 keine Wolken
Do, 21.02. 7:00 2(1290m) 3(2700m)
Ortszeit Luftdruck NN (hPa) Tendenz (hPa in 3 Std.)
Do, 21.02. 7:00 1030 + 0,4
Do, 21.02. 1:00 1029 + 0,3
Mi, 20.02. 19:00 1027 + 0,5
Mi, 20.02. 13:00 1026 + 0,4
Mi, 20.02. 7:00 1025 + 0,6
Mi, 20.02. 1:00 1024 + 0,9
Di, 19.02. 19:00 1021 + 0,2
Di, 19.02. 13:00 1021 - 0,7
Ortszeit Luftdruck NN (hPa) Tendenz (hPa in 3 Std.)
Do, 21.02. 10:00 1030 + 1,1
Do, 21.02. 9:50 1030 keine Meldung
Do, 21.02. 9:40 1030 keine Meldung
Do, 21.02. 9:30 1031 + 1,1
Do, 21.02. 9:20 1031 keine Meldung
Do, 21.02. 9:10 1031 keine Meldung
Do, 21.02. 9:00 1031 + 1,2
Do, 21.02. 8:30 1031 + 1,0
Do, 21.02. 8:00 1031 + 0,7
Do, 21.02. 7:30 1030 + 0,5
Do, 21.02. 7:00 1030 + 0,4
Ortszeit Schneehöhe (cm)
Do, 21.02. 7:00 0
Do, 21.02. 1:00 0
Mi, 20.02. 19:00 0
Mi, 20.02. 13:00 0
Mi, 20.02. 7:00 0
Mi, 20.02. 1:00 0
Di, 19.02. 19:00 0
Di, 19.02. 13:00 0
Ortszeit Schneehöhe (cm)
Do, 21.02. 10:00 0
Do, 21.02. 9:50 0
Do, 21.02. 9:40 0
Do, 21.02. 9:30 0
Do, 21.02. 9:20 0
Do, 21.02. 9:10 0
Do, 21.02. 9:00 0
Do, 21.02. 8:30 0
Do, 21.02. 8:00 0
Do, 21.02. 7:30 0
Do, 21.02. 7:00 0
Link zu dieser Seite / Seite empfehlen

Das Wetter in ...